Time;durP1;ratioP1;P1;durP2;ratioP2;P2;SDS_P1;SDS_P2;PMS_P1;PMS_P2;Temp;Humidity;BMP_temperature;BMP_pressure;BME280_temperature;BME280_humidity;BME280_pressure;Samples;Min_cycle;Max_cycle;Signal;HPM_P1;HPM_P2
2021/06/20 00:00:28;;;;;;;1.05;1.05;;;;;;;34.33;25.49;98055.84;5054592;28;20357;-90
2021/06/20 00:02:55;;;;;;;1.02;0.98;;;;;;;34.45;24.78;98056.75;5053310;28;20037;-90
2021/06/20 00:05:23;;;;;;;2.25;1.02;;;;;;;34.57;24.45;98061.25;5057548;28;20455;-88
2021/06/20 00:07:50;;;;;;;1.98;1.10;;;;;;;34.57;24.54;98056.34;5058418;28;20033;-89
2021/06/20 00:10:20;;;;;;;1.75;1.10;;;;;;;34.55;25.47;98053.22;5056340;28;20032;-89
2021/06/20 00:12:47;;;;;;;1.45;1.00;;;;;;;34.38;25.31;98052.25;5053499;28;20493;-89
2021/06/20 00:15:16;;;;;;;1.17;0.90;;;;;;;34.12;25.77;98047.88;5058650;28;20044;-89
2021/06/20 00:17:42;;;;;;;3.10;1.15;;;;;;;33.68;26.62;98048.94;5063229;28;20029;-89
2021/06/20 00:20:11;;;;;;;1.55;1.10;;;;;;;33.41;26.86;98040.84;5059509;28;20040;-89
2021/06/20 00:22:37;;;;;;;1.38;1.00;;;;;;;33.48;27.16;98045.31;5061567;28;20024;-88
2021/06/20 00:25:07;;;;;;;0.98;0.98;;;;;;;33.58;27.03;98047.56;5056147;28;20044;-88
2021/06/20 00:27:33;;;;;;;1.13;1.00;;;;;;;33.40;26.86;98034.38;5055076;28;20060;-88
2021/06/20 00:30:00;;;;;;;1.38;0.98;;;;;;;33.53;26.51;98039.72;5065613;28;20384;-89
2021/06/20 00:32:26;;;;;;;1.42;1.17;;;;;;;33.42;26.84;98034.63;5060145;28;20436;-89
2021/06/20 00:34:53;;;;;;;1.73;1.10;;;;;;;33.47;26.44;98036.00;5063335;28;20122;-89
2021/06/20 00:37:19;;;;;;;1.60;1.15;;;;;;;33.80;25.76;98047.00;5062659;28;20158;-89
2021/06/20 00:39:45;;;;;;;0.80;0.70;;;;;;;33.96;25.32;98052.88;5064053;28;20028;-89
2021/06/20 00:42:11;;;;;;;0.95;0.90;;;;;;;34.15;24.95;98047.66;5067957;28;20035;-89
2021/06/20 00:44:48;;;;;;;2.80;1.23;;;;;;;34.18;25.91;98045.84;5065470;28;20028;-89
2021/06/20 00:47:15;;;;;;;1.52;1.35;;;;;;;33.98;25.70;98041.75;5051909;28;20515;-88
2021/06/20 00:49:41;;;;;;;1.95;0.93;;;;;;;33.93;25.69;98050.25;5058425;28;20025;-88
2021/06/20 00:52:07;;;;;;;1.63;1.15;;;;;;;34.14;24.80;98034.69;5059299;28;20095;-89
2021/06/20 00:54:33;;;;;;;2.15;1.45;;;;;;;34.03;25.30;98043.91;5060866;28;20130;-89
2021/06/20 00:57:00;;;;;;;1.63;1.17;;;;;;;33.56;26.20;98038.72;5059996;28;20405;-88
2021/06/20 00:59:27;;;;;;;1.40;1.30;;;;;;;33.35;26.10;98040.75;5064325;28;20021;-88
2021/06/20 01:01:53;;;;;;;1.80;1.08;;;;;;;33.14;26.75;98033.50;5054730;28;20135;-88
2021/06/20 01:04:19;;;;;;;1.63;1.25;;;;;;;32.97;27.06;98040.22;5055351;28;20040;-88
2021/06/20 01:06:46;;;;;;;1.50;1.00;;;;;;;32.36;27.98;98042.91;5061015;28;20033;-88
2021/06/20 01:09:12;;;;;;;2.55;1.20;;;;;;;32.09;28.69;98044.00;5058891;28;20028;-88
2021/06/20 01:11:38;;;;;;;1.17;1.08;;;;;;;32.05;28.68;98039.78;5057308;28;20498;-91
2021/06/20 01:14:04;;;;;;;1.23;1.05;;;;;;;31.94;28.60;98033.88;5057020;28;20041;-91
2021/06/20 01:16:31;;;;;;;1.42;0.85;;;;;;;32.20;28.13;98036.94;5052705;28;20041;-89
2021/06/20 01:18:57;;;;;;;1.05;0.90;;;;;;;32.60;27.33;98031.44;5050978;28;20108;-90
2021/06/20 01:21:23;;;;;;;1.02;0.90;;;;;;;32.95;26.83;98035.06;5063385;28;20025;-89
2021/06/20 01:23:49;;;;;;;1.40;1.08;;;;;;;33.08;25.98;98026.97;5057003;28;20045;-89
2021/06/20 01:26:16;;;;;;;1.27;1.10;;;;;;;33.31;26.63;98031.66;5058418;28;20045;-89
2021/06/20 01:28:50;;;;;;;1.25;1.10;;;;;;;33.08;26.70;98034.72;5052145;28;20045;-89
2021/06/20 01:31:17;;;;;;;1.17;1.10;;;;;;;32.69;27.17;98022.78;5052775;28;20040;-89
2021/06/20 01:33:44;;;;;;;1.15;1.00;;;;;;;32.29;27.91;98014.88;5062714;28;20028;-89
2021/06/20 01:36:11;;;;;;;1.75;1.25;;;;;;;32.39;27.72;98009.88;5054102;28;20036;-89
2021/06/20 01:38:38;;;;;;;1.15;0.93;;;;;;;32.49;26.91;98008.47;5059610;28;20117;-89
2021/06/20 01:41:04;;;;;;;2.17;0.80;;;;;;;32.59;27.15;98013.59;5061495;28;20036;-89
2021/06/20 01:43:30;;;;;;;4.53;1.15;;;;;;;32.78;26.43;98005.59;5052268;28;20033;-89
2021/06/20 01:45:56;;;;;;;1.48;1.05;;;;;;;33.02;26.38;98017.59;5051352;28;20431;-90
2021/06/20 01:48:23;;;;;;;1.00;0.90;;;;;;;33.39;25.71;98021.44;5052318;28;20411;-89
2021/06/20 01:50:49;;;;;;;1.25;1.08;;;;;;;33.24;26.00;98020.72;5055397;28;20083;-88
2021/06/20 01:53:16;;;;;;;1.95;1.10;;;;;;;32.67;26.08;98011.88;5055752;28;20029;-87
2021/06/20 01:55:45;;;;;;;2.25;1.10;;;;;;;32.20;26.73;98006.47;5055412;28;20094;-88
2021/06/20 01:58:14;;;;;;;3.53;1.30;;;;;;;31.76;28.26;98005.66;5063060;28;20041;-89
2021/06/20 02:00:42;;;;;;;1.10;1.00;;;;;;;31.64;28.71;97993.31;5067284;28;20366;-88
2021/06/20 02:03:14;;;;;;;3.67;1.52;;;;;;;31.74;28.71;97989.09;5056906;28;20045;-87
2021/06/20 02:05:42;;;;;;;1.98;1.40;;;;;;;31.83;28.47;97977.69;5063148;28;20033;-88
2021/06/20 02:08:10;;;;;;;1.55;1.35;;;;;;;31.95;27.95;97979.41;5059149;28;20029;-87
2021/06/20 02:10:37;;;;;;;1.23;1.02;;;;;;;32.04;28.05;97976.50;5060405;28;20552;-88
2021/06/20 02:13:03;;;;;;;1.77;1.20;;;;;;;32.14;28.35;97971.50;5058395;28;20068;-89
2021/06/20 02:15:30;;;;;;;2.45;1.25;;;;;;;32.43;27.40;97967.81;5055186;28;20490;-89
2021/06/20 02:17:57;;;;;;;3.42;1.50;;;;;;;32.67;27.23;97962.78;5057792;28;20037;-88
2021/06/20 02:20:23;;;;;;;1.45;1.15;;;;;;;32.66;27.31;97969.72;5065721;28;20133;-89
2021/06/20 02:22:51;;;;;;;1.10;1.00;;;;;;;32.82;26.21;97963.47;5056050;28;20028;-89
2021/06/20 02:25:19;;;;;;;1.88;1.00;;;;;;;33.10;25.89;97969.56;5060280;28;20127;-89
2021/06/20 02:27:48;;;;;;;0.95;0.85;;;;;;;33.34;25.31;97973.75;5058997;28;20143;-88
2021/06/20 02:30:15;;;;;;;1.20;1.10;;;;;;;33.03;25.90;97976.47;5056435;28;20044;-88
2021/06/20 02:32:42;;;;;;;2.72;1.23;;;;;;;33.01;26.68;97972.53;5057711;28;20041;-88
2021/06/20 02:35:10;;;;;;;1.48;1.38;;;;;;;32.57;27.12;97981.22;5058382;28;20055;-90
2021/06/20 02:37:37;;;;;;;1.00;0.93;;;;;;;32.07;27.52;97986.88;5062434;28;20057;-90
2021/06/20 02:40:05;;;;;;;1.20;1.10;;;;;;;31.99;27.90;97985.72;5059500;28;20078;-90
2021/06/20 02:42:31;;;;;;;1.75;1.40;;;;;;;31.85;28.08;97991.38;5054651;28;20044;-90
2021/06/20 02:44:57;;;;;;;2.85;1.20;;;;;;;31.84;28.01;97976.38;5058224;28;20078;-90
2021/06/20 02:47:23;;;;;;;1.75;1.02;;;;;;;32.07;27.37;97988.94;5058738;28;20492;-88
2021/06/20 02:49:49;;;;;;;2.92;1.20;;;;;;;32.02;27.47;97979.03;5064170;28;20401;-89
2021/06/20 02:52:16;;;;;;;1.25;0.90;;;;;;;32.16;26.88;97976.69;5059739;28;20423;-89
2021/06/20 02:54:50;;;;;;;1.77;1.20;;;;;;;32.33;27.41;97983.41;5057651;28;20025;-88
2021/06/20 02:57:24;;;;;;;1.30;1.20;;;;;;;32.28;27.24;97986.97;5056859;28;20082;-89
2021/06/20 02:59:51;;;;;;;3.40;1.33;;;;;;;32.29;27.42;97985.69;5058580;28;20025;-90
2021/06/20 03:02:18;;;;;;;3.03;1.10;;;;;;;32.07;27.94;97997.44;5063286;28;20044;-89
2021/06/20 03:04:45;;;;;;;1.30;1.20;;;;;;;32.00;28.09;97995.00;5065668;28;20131;-89
2021/06/20 03:07:11;;;;;;;1.52;1.30;;;;;;;31.37;28.90;98002.03;5057900;28;20028;-90
2021/06/20 03:09:37;;;;;;;1.90;1.40;;;;;;;30.91;29.71;98007.28;5059505;28;20035;-90
2021/06/20 03:12:05;;;;;;;3.20;1.30;;;;;;;30.90;29.94;98013.44;5058289;28;20060;-89
2021/06/20 03:14:33;;;;;;;2.45;1.27;;;;;;;31.49;29.18;98012.38;5058351;28;20521;-89
2021/06/20 03:16:59;;;;;;;1.98;1.30;;;;;;;31.64;28.56;98021.72;5061382;28;20037;-88
2021/06/20 03:19:25;;;;;;;1.33;1.23;;;;;;;31.82;27.99;98010.19;5059597;28;20035;-88
2021/06/20 03:21:57;;;;;;;1.90;1.63;;;;;;;32.24;27.82;98006.25;5054646;28;20045;-88
2021/06/20 03:24:23;;;;;;;1.98;1.20;;;;;;;32.45;27.74;97996.53;5058893;28;20033;-87
2021/06/20 03:26:49;;;;;;;2.08;1.20;;;;;;;32.67;27.11;97996.91;5065692;28;20507;-89
2021/06/20 03:29:15;;;;;;;0.80;0.80;;;;;;;32.78;26.97;97987.72;5059209;28;20040;-89
2021/06/20 03:31:41;;;;;;;2.00;1.48;;;;;;;33.03;27.06;97995.59;5054136;28;20469;-88
2021/06/20 03:34:07;;;;;;;1.33;1.23;;;;;;;33.18;26.92;97993.47;5069404;28;20028;-89
2021/06/20 03:36:33;;;;;;;1.85;1.58;;;;;;;33.50;27.39;97985.81;5058586;28;20439;-88
2021/06/20 03:38:59;;;;;;;1.40;1.20;;;;;;;33.77;26.92;97982.50;5063410;28;20507;-88
2021/06/20 03:41:25;;;;;;;1.75;1.30;;;;;;;33.85;26.59;97987.25;5051158;28;20044;-90
2021/06/20 03:43:52;;;;;;;1.63;1.17;;;;;;;34.35;25.90;97989.78;5058421;28;20481;-91
2021/06/20 03:46:18;;;;;;;1.25;1.05;;;;;;;34.77;25.90;97986.19;5061049;28;20086;-90
2021/06/20 03:48:45;;;;;;;1.52;1.40;;;;;;;34.94;25.65;97975.66;5060457;28;20535;-90
2021/06/20 03:51:11;;;;;;;1.92;1.20;;;;;;;35.01;25.62;97975.19;5063345;28;20047;-90
2021/06/20 03:53:37;;;;;;;2.78;1.50;;;;;;;34.54;26.09;97994.59;5058421;28;20400;-88
2021/06/20 03:56:08;;;;;;;1.48;1.30;;;;;;;34.02;26.67;97990.25;5060679;28;20048;-90
2021/06/20 03:58:35;;;;;;;1.92;1.23;;;;;;;33.89;26.61;97993.50;5062061;28;20400;-90
2021/06/20 04:01:01;;;;;;;1.30;1.20;;;;;;;34.65;25.99;97989.00;5062726;28;20033;-90
2021/06/20 04:03:27;;;;;;;1.50;1.40;;;;;;;35.16;25.22;97987.19;5069845;28;20380;-90
2021/06/20 04:05:53;;;;;;;2.20;1.35;;;;;;;35.48;25.77;97991.47;5065493;28;20044;-90
2021/06/20 04:08:19;;;;;;;5.20;1.58;;;;;;;35.39;25.26;97978.19;5066149;28;20033;-90
2021/06/20 04:10:45;;;;;;;3.60;1.23;;;;;;;35.44;25.45;97979.50;5057517;28;20033;-90
2021/06/20 04:13:11;;;;;;;1.77;1.00;;;;;;;35.54;25.12;97978.03;5056090;28;20112;-89
2021/06/20 04:15:38;;;;;;;0.90;0.90;;;;;;;35.30;26.00;97981.28;5061000;28;20082;-89
2021/06/20 04:18:07;;;;;;;1.33;1.10;;;;;;;35.84;24.66;97984.84;5064766;28;20040;-91
2021/06/20 04:20:33;;;;;;;2.03;1.27;;;;;;;36.07;25.48;97985.66;5060028;28;20362;-90
2021/06/20 04:22:59;;;;;;;1.27;0.93;;;;;;;36.15;25.31;97989.56;5060181;28;20107;-89
2021/06/20 04:25:25;;;;;;;0.80;0.77;;;;;;;36.59;24.85;97977.34;5053425;28;20515;-90
2021/06/20 04:27:51;;;;;;;0.93;0.88;;;;;;;36.85;24.12;97983.53;5056184;28;20492;-89
2021/06/20 04:30:21;;;;;;;1.08;0.95;;;;;;;36.87;24.17;97992.34;5061195;28;20036;-90
2021/06/20 04:32:51;;;;;;;3.80;1.93;;;;;;;36.57;24.27;97982.81;5057096;28;20032;-89
2021/06/20 04:35:18;;;;;;;0.95;0.95;;;;;;;36.59;24.66;97985.91;5061128;28;20028;-90
2021/06/20 04:37:45;;;;;;;0.90;0.73;;;;;;;37.09;24.83;97980.84;5061634;28;20418;-90
2021/06/20 04:40:15;;;;;;;1.55;1.45;;;;;;;37.25;23.81;97973.50;5063798;28;20033;-90
2021/06/20 04:42:43;;;;;;;1.58;1.05;;;;;;;36.84;23.88;97990.53;5054625;28;20397;-90
2021/06/20 04:45:10;;;;;;;1.33;1.20;;;;;;;36.70;24.74;97986.69;5053429;28;20064;-89
2021/06/20 04:47:39;;;;;;;2.38;0.63;;;;;;;36.89;24.62;97981.16;5056415;28;20481;-89
2021/06/20 04:50:06;;;;;;;3.15;0.93;;;;;;;36.92;24.62;97979.38;5053896;28;20060;-89
2021/06/20 04:52:32;;;;;;;0.95;0.85;;;;;;;37.17;24.15;97978.22;5064373;28;20047;-88
2021/06/20 04:54:58;;;;;;;1.38;1.27;;;;;;;37.08;24.29;97973.59;5065931;28;20027;-87
2021/06/20 04:57:26;;;;;;;1.20;1.10;;;;;;;36.29;25.19;97971.38;5059881;28;20076;-87
2021/06/20 05:00:00;;;;;;;1.40;1.30;;;;;;;36.41;25.02;97969.28;5054493;28;20025;-87
2021/06/20 05:02:27;;;;;;;1.40;1.30;;;;;;;36.44;25.27;97974.72;5057153;28;20162;-86
2021/06/20 05:04:53;;;;;;;0.95;0.75;;;;;;;36.85;25.02;97972.06;5068409;28;20103;-87
2021/06/20 05:07:20;;;;;;;3.30;1.30;;;;;;;36.98;24.40;97965.78;5065177;28;20028;-88
2021/06/20 05:09:47;;;;;;;1.25;0.75;;;;;;;37.61;24.34;97954.31;5062648;28;20040;-86
2021/06/20 05:12:13;;;;;;;0.55;0.55;;;;;;;37.81;24.00;97953.94;5055288;28;20378;-92
2021/06/20 05:14:43;;;;;;;1.23;0.75;;;;;;;37.93;23.64;97955.41;5052566;28;20056;-90
2021/06/20 05:17:13;;;;;;;1.02;0.68;;;;;;;38.28;23.05;97948.91;5062248;28;20115;-88
2021/06/20 05:19:40;;;;;;;;;;;;;;;38.52;22.24;97941.09;5062539;28;20512;-88
2021/06/20 05:22:09;;;;;;;0.60;0.60;;;;;;;38.59;23.40;97948.34;5056025;28;20398;-87
2021/06/20 05:24:39;;;;;;;1.27;0.60;;;;;;;38.66;23.05;97950.59;5057382;28;20028;-87
2021/06/20 05:27:10;;;;;;;0.70;0.70;;;;;;;38.94;22.63;97947.44;5056555;28;20028;-89
2021/06/20 05:29:36;;;;;;;1.15;0.63;;;;;;;39.09;22.70;97950.66;5053507;28;20040;-88
2021/06/20 05:32:03;;;;;;;1.02;0.68;;;;;;;39.07;22.03;97954.06;5051779;28;20044;-88
2021/06/20 05:34:29;;;;;;;0.57;0.57;;;;;;;39.02;22.25;97957.03;5066060;28;20032;-89
2021/06/20 05:36:55;;;;;;;0.95;0.90;;;;;;;38.94;22.69;97953.97;5061728;28;20115;-88
2021/06/20 05:39:21;;;;;;;1.42;0.63;;;;;;;39.25;22.17;97936.13;5062445;28;20036;-88
2021/06/20 05:41:47;;;;;;;1.15;0.60;;;;;;;39.53;22.09;97952.19;5063438;28;20045;-89
2021/06/20 05:44:14;;;;;;;1.33;0.60;;;;;;;39.67;22.40;97954.63;5068297;28;20116;-89
2021/06/20 05:46:40;;;;;;;0.50;0.50;;;;;;;39.78;22.68;97963.09;5063338;28;20032;-85
2021/06/20 05:49:06;;;;;;;0.77;0.77;;;;;;;39.64;22.29;97964.34;5065606;28;20033;-86
2021/06/20 05:51:32;;;;;;;0.68;0.68;;;;;;;38.07;23.43;97968.59;5067848;28;20528;-85
2021/06/20 05:53:58;;;;;;;0.90;0.63;;;;;;;38.55;23.68;97965.09;5066351;28;20446;-85
2021/06/20 05:56:24;;;;;;;0.52;0.52;;;;;;;38.61;23.93;97975.19;5061455;28;20071;-87
2021/06/20 05:58:53;;;;;;;0.43;0.43;;;;;;;39.13;23.08;97983.50;5062536;28;20033;-84
2021/06/20 06:01:19;;;;;;;0.65;0.52;;;;;;;39.85;22.97;97982.59;5066453;28;20750;-84
2021/06/20 06:03:48;;;;;;;0.73;0.50;;;;;;;40.33;21.20;97986.56;5069667;28;20032;-82
2021/06/20 06:06:17;;;;;;;0.52;0.52;;;;;;;40.77;20.68;97987.88;5062740;28;20385;-82
2021/06/20 06:08:43;;;;;;;1.52;0.68;;;;;;;40.51;21.22;97995.16;5059107;28;20037;-82
2021/06/20 06:11:09;;;;;;;0.60;0.50;;;;;;;39.93;22.15;97991.38;5060022;28;20115;-83
2021/06/20 06:13:35;;;;;;;1.10;0.98;;;;;;;38.84;22.63;98001.59;5060471;28;20021;-84
2021/06/20 06:16:07;;;;;;;0.80;0.70;;;;;;;38.65;22.15;97995.00;5066530;28;20040;-83
2021/06/20 06:18:33;;;;;;;1.05;0.98;;;;;;;38.47;24.33;97999.31;5066422;28;20043;-83
2021/06/20 06:20:59;;;;;;;1.85;1.10;;;;;;;37.68;24.33;97993.88;5062396;28;20021;-82
2021/06/20 06:23:26;;;;;;;0.68;0.68;;;;;;;38.45;24.18;97999.09;5057036;28;20033;-82
2021/06/20 06:25:52;;;;;;;0.75;0.75;;;;;;;39.03;23.59;97990.94;5060057;28;20036;-82
2021/06/20 06:28:18;;;;;;;2.92;0.65;;;;;;;39.24;22.59;97992.03;5064372;28;20147;-85
2021/06/20 06:30:44;;;;;;;0.52;0.52;;;;;;;39.83;22.20;97976.59;5062855;28;20037;-85
2021/06/20 06:33:10;;;;;;;0.93;0.80;;;;;;;39.88;20.78;97978.63;5062917;28;20036;-87
2021/06/20 06:35:37;;;;;;;1.10;0.90;;;;;;;39.14;22.03;97995.78;5061723;28;20035;-83
2021/06/20 06:38:03;;;;;;;1.42;0.60;;;;;;;39.38;22.66;97999.41;5064265;28;20123;-83
2021/06/20 06:40:29;;;;;;;0.75;0.75;;;;;;;39.89;21.66;97991.66;5067170;28;20096;-83
2021/06/20 06:42:57;;;;;;;0.80;0.65;;;;;;;39.67;22.51;97994.09;5066304;28;20060;-83
2021/06/20 06:45:25;;;;;;;0.85;0.85;;;;;;;39.05;22.80;97999.00;5062781;28;20054;-84
2021/06/20 06:47:51;;;;;;;1.30;0.70;;;;;;;39.41;21.84;97991.81;5066326;28;20127;-84
2021/06/20 06:50:17;;;;;;;0.63;0.52;;;;;;;40.19;20.60;97994.34;5063347;28;20027;-83
2021/06/20 06:52:44;;;;;;;0.75;0.70;;;;;;;40.23;20.93;97997.72;5060919;28;20075;-83
2021/06/20 06:55:11;;;;;;;0.88;0.85;;;;;;;40.51;20.60;98000.91;5058755;28;20481;-83
2021/06/20 06:57:37;;;;;;;1.55;0.95;;;;;;;39.69;21.68;98003.72;5061016;28;20526;-82
2021/06/20 07:00:06;;;;;;;1.02;0.95;;;;;;;39.16;21.63;98004.66;5070172;28;20035;-82
2021/06/20 07:02:32;;;;;;;1.83;0.98;;;;;;;39.22;22.14;98000.41;5068428;28;20041;-82
2021/06/20 07:04:58;;;;;;;0.85;0.85;;;;;;;38.64;22.99;98002.81;5068059;28;20032;-83
2021/06/20 07:07:25;;;;;;;0.90;0.90;;;;;;;38.64;22.25;98005.69;5068116;28;20028;-82
2021/06/20 07:09:51;;;;;;;3.08;1.50;;;;;;;38.92;23.68;97998.91;5065498;28;20032;-83
2021/06/20 07:12:20;;;;;;;0.93;0.93;;;;;;;38.43;23.18;97990.25;5065424;28;20025;-84
2021/06/20 07:14:46;;;;;;;1.15;1.05;;;;;;;37.85;23.68;97991.72;5067581;28;20043;-82
2021/06/20 07:17:13;;;;;;;1.27;1.17;;;;;;;36.93;25.32;97998.88;5066336;28;20021;-83
2021/06/20 07:19:39;;;;;;;1.48;1.30;;;;;;;36.22;26.47;97991.13;5086161;28;20392;-83
2021/06/20 07:22:05;;;;;;;0.80;0.80;;;;;;;37.38;26.11;97990.91;5066444;28;20526;-82
2021/06/20 07:24:35;;;;;;;0.90;0.90;;;;;;;37.42;24.65;97985.69;5065035;28;20443;-83
2021/06/20 07:27:01;;;;;;;2.85;1.08;;;;;;;36.64;24.89;97982.28;5059010;28;20112;-83
2021/06/20 07:29:27;;;;;;;1.08;0.98;;;;;;;35.68;25.76;97982.72;5041991;28;20049;-83
2021/06/20 07:31:53;;;;;;;1.35;1.10;;;;;;;35.66;26.49;97984.53;5044258;28;20028;-84
2021/06/20 07:34:19;;;;;;;1.15;1.05;;;;;;;35.72;25.15;97986.09;5049377;28;20385;-83
2021/06/20 07:36:45;;;;;;;1.42;1.00;;;;;;;36.31;25.61;97983.06;5038545;28;20044;-83
2021/06/20 07:39:11;;;;;;;2.47;1.13;;;;;;;35.18;27.13;97967.47;5048548;28;20044;-83
2021/06/20 07:41:37;;;;;;;1.10;0.90;;;;;;;36.09;27.77;97965.91;5041443;28;20035;-83
2021/06/20 07:44:04;;;;;;;1.00;1.00;;;;;;;37.07;23.67;97963.44;5040828;28;20397;-82
2021/06/20 07:46:30;;;;;;;0.93;0.93;;;;;;;37.71;24.25;97959.22;5048524;28;20116;-82
2021/06/20 07:48:56;;;;;;;1.25;0.70;;;;;;;38.76;22.76;97960.47;5044927;28;20472;-83
2021/06/20 07:51:22;;;;;;;0.73;0.70;;;;;;;39.57;21.36;97955.53;5046632;28;20029;-85
2021/06/20 07:53:48;;;;;;;0.65;0.65;;;;;;;40.00;20.08;97954.09;5044572;28;20025;-84
2021/06/20 07:56:14;;;;;;;2.85;0.70;;;;;;;39.97;19.94;97965.94;5037748;28;20467;-83
2021/06/20 07:58:40;;;;;;;1.08;0.90;;;;;;;39.77;21.33;97966.50;5041710;28;20064;-84
2021/06/20 08:01:06;;;;;;;1.30;0.75;;;;;;;39.81;22.08;97966.97;5034125;28;20029;-84
2021/06/20 08:03:34;;;;;;;0.57;0.52;;;;;;;39.98;21.75;97971.13;5047975;28;20112;-84
2021/06/20 08:06:00;;;;;;;0.70;0.70;;;;;;;39.34;20.52;97978.06;5035199;28;20116;-84
2021/06/20 08:08:26;;;;;;;3.22;0.98;;;;;;;38.13;23.09;97982.91;5040837;28;20036;-84
2021/06/20 08:10:52;;;;;;;1.13;0.77;;;;;;;38.23;24.13;97970.56;5040430;28;20108;-83
2021/06/20 08:13:18;;;;;;;1.00;0.82;;;;;;;37.95;23.83;97972.88;5041112;28;20025;-84
2021/06/20 08:15:45;;;;;;;1.13;1.02;;;;;;;36.83;25.38;97968.19;5045903;28;20401;-84
2021/06/20 08:18:11;;;;;;;1.08;0.98;;;;;;;35.57;27.01;97961.94;5042328;28;21655;-83
2021/06/20 08:20:37;;;;;;;3.38;1.08;;;;;;;35.55;28.60;97962.44;5039835;28;20025;-88
2021/06/20 08:23:03;;;;;;;1.35;1.25;;;;;;;35.89;27.49;97964.06;5044502;28;20029;-87
2021/06/20 08:25:29;;;;;;;0.98;0.90;;;;;;;37.32;25.09;97955.75;5043835;28;20028;-88
2021/06/20 08:27:55;;;;;;;0.90;0.90;;;;;;;37.73;24.84;97952.94;5038648;28;20041;-85
2021/06/20 08:30:22;;;;;;;0.98;0.88;;;;;;;37.96;25.28;97958.00;5054120;28;20030;-88
2021/06/20 08:32:48;;;;;;;0.88;0.88;;;;;;;37.47;25.39;97958.31;5054862;28;21866;-84
2021/06/20 08:35:17;;;;;;;1.13;1.02;;;;;;;37.07;25.76;97960.56;5054884;28;20591;-83
2021/06/20 08:37:44;;;;;;;1.45;1.10;;;;;;;36.83;24.58;97954.63;5058719;28;20603;-84
2021/06/20 08:40:11;;;;;;;1.40;1.30;;;;;;;37.27;24.45;97950.84;5061196;28;20032;-89
2021/06/20 08:42:37;;;;;;;1.05;1.00;;;;;;;37.18;25.44;97946.19;5058919;28;20037;-89
2021/06/20 08:45:04;;;;;;;3.83;1.02;;;;;;;36.92;26.35;97940.06;5057397;28;20473;-91
2021/06/20 08:47:31;;;;;;;3.80;1.10;;;;;;;36.98;23.91;97942.91;5066418;28;20032;-88
2021/06/20 08:49:57;;;;;;;1.08;0.90;;;;;;;38.37;23.69;97945.69;5072232;28;20033;-89
2021/06/20 08:52:23;;;;;;;1.10;1.00;;;;;;;38.53;22.50;97953.38;5071779;28;20178;-91
2021/06/20 08:55:01;;;;;;;3.42;0.60;;;;;;;38.46;23.57;97948.97;5069425;28;20044;-89
2021/06/20 08:57:35;;;;;;;0.85;0.85;;;;;;;38.72;23.20;97946.38;5059823;28;20416;-87
2021/06/20 09:00:07;;;;;;;4.47;1.08;;;;;;;38.30;23.18;97944.19;5055380;28;20041;-87
2021/06/20 09:02:33;;;;;;;0.70;0.70;;;;;;;38.66;23.20;97942.78;5063908;28;20032;-87
2021/06/20 09:05:03;;;;;;;1.08;0.98;;;;;;;37.72;23.57;97937.03;5062843;28;20036;-89
2021/06/20 09:07:30;;;;;;;1.20;1.10;;;;;;;37.34;23.82;97935.97;5070179;28;20025;-89
2021/06/20 09:10:18;;;;;;;1.00;0.80;;;;;;;37.24;25.07;97937.56;5065839;28;20036;-90
2021/06/20 09:12:56;;;;;;;1.00;1.00;;;;;;;38.12;23.89;97936.25;5055198;28;20033;-87
2021/06/20 09:15:29;;;;;;;1.52;1.23;;;;;;;37.55;24.27;97937.19;5063333;28;20560;-88
2021/06/20 09:18:00;;;;;;;1.02;0.77;;;;;;;38.38;23.50;97939.41;5055230;28;20140;-88
2021/06/20 09:20:36;;;;;;;0.85;0.85;;;;;;;38.86;23.17;97943.66;5062279;28;20068;-86
2021/06/20 09:23:07;;;;;;;0.90;0.90;;;;;;;37.57;24.66;97939.50;5096869;28;20411;-86
2021/06/20 09:25:34;;;;;;;0.93;0.93;;;;;;;37.57;25.02;97943.16;5071345;28;20492;-89
2021/06/20 09:28:03;;;;;;;1.10;1.10;;;;;;;38.10;24.02;97944.59;5064229;28;20056;-88
2021/06/20 09:30:31;;;;;;;1.00;1.00;;;;;;;37.74;24.72;97943.03;5068846;28;20060;-87
2021/06/20 09:33:04;;;;;;;1.02;1.00;;;;;;;36.83;25.32;97946.03;5060618;28;20384;-86
2021/06/20 09:35:48;;;;;;;1.05;0.95;;;;;;;36.86;25.38;97942.13;5062819;28;20059;-87
2021/06/20 09:38:20;;;;;;;1.08;1.08;;;;;;;37.44;24.65;97939.34;5064246;28;20112;-87
2021/06/20 09:40:47;;;;;;;0.93;0.93;;;;;;;37.71;25.23;97946.97;5055351;28;20029;-87
2021/06/20 09:43:15;;;;;;;0.88;0.88;;;;;;;38.90;23.25;97944.13;5066520;28;20033;-87
2021/06/20 09:45:47;;;;;;;1.00;1.00;;;;;;;38.94;23.17;97933.09;5068565;28;20032;-87
2021/06/20 09:48:33;;;;;;;1.15;1.00;;;;;;;38.22;23.93;97928.06;5071933;28;20028;-86
2021/06/20 09:51:17;;;;;;;1.10;1.00;;;;;;;37.29;25.04;97925.31;5069698;28;20033;-86
2021/06/20 09:53:44;;;;;;;1.15;0.85;;;;;;;36.87;25.52;97917.94;5056555;28;20071;-90
2021/06/20 09:56:32;;;;;;;0.90;0.90;;;;;;;37.54;27.54;97920.50;5059532;28;20370;-88
2021/06/20 09:59:00;;;;;;;1.20;1.15;;;;;;;37.50;25.53;97914.28;5053700;28;20056;-88
2021/06/20 10:01:27;;;;;;;1.92;1.30;;;;;;;37.95;24.47;97904.84;5061993;28;20455;-88
2021/06/20 10:03:54;;;;;;;1.00;1.00;;;;;;;37.78;25.31;97901.31;5064848;28;20051;-88
2021/06/20 10:06:21;;;;;;;1.02;1.02;;;;;;;38.02;23.82;97895.66;5062235;28;20025;-89
2021/06/20 10:08:48;;;;;;;0.95;0.90;;;;;;;37.15;25.32;97900.66;5060325;28;20510;-87
2021/06/20 10:11:16;;;;;;;1.00;1.00;;;;;;;37.33;25.20;97894.31;5059310;28;20189;-96
2021/06/20 10:13:42;;;;;;;1.20;1.10;;;;;;;36.91;25.89;97895.56;5056681;28;20124;-86
2021/06/20 10:16:35;;;;;;;1.80;1.05;;;;;;;36.49;26.31;97893.09;5063760;28;20068;-87
2021/06/20 10:19:18;;;;;;;1.40;0.90;;;;;;;38.24;23.94;97897.53;5058079;28;20029;-87
2021/06/20 10:22:00;;;;;;;0.68;0.68;;;;;;;39.53;24.40;97898.38;5061081;28;20029;-87
2021/06/20 10:24:27;;;;;;;1.25;1.13;;;;;;;38.41;23.78;97895.31;5061215;28;20040;-86
2021/06/20 10:26:58;;;;;;;0.82;0.82;;;;;;;38.28;25.28;97892.31;5065617;28;20139;-86
2021/06/20 10:29:28;;;;;;;0.95;0.90;;;;;;;38.36;23.52;97893.28;5062517;28;20420;-86
2021/06/20 10:31:56;;;;;;;0.80;0.80;;;;;;;38.09;24.11;97893.53;5065960;28;20044;-84
2021/06/20 10:34:31;;;;;;;3.08;1.02;;;;;;;38.23;24.67;97895.97;5066282;28;20091;-84
2021/06/20 10:37:01;;;;;;;0.80;0.80;;;;;;;38.95;23.85;97900.19;5062912;28;20044;-84
2021/06/20 10:39:28;;;;;;;0.90;0.90;;;;;;;39.29;23.04;97904.19;5057460;28;20071;-84
2021/06/20 10:42:39;;;;;;;0.60;0.60;;;;;;;39.15;20.74;97897.59;5058330;28;20033;-83
2021/06/20 10:45:08;;;;;;;1.08;0.60;;;;;;;39.52;21.08;97905.44;5051103;28;20107;-86
2021/06/20 10:47:39;;;;;;;0.80;0.80;;;;;;;39.29;21.20;97895.56;5056223;28;20025;-84
2021/06/20 10:50:06;;;;;;;1.20;0.90;;;;;;;39.76;21.91;97896.72;5059522;28;20029;-85
2021/06/20 10:52:33;;;;;;;0.70;0.70;;;;;;;39.47;20.09;97900.53;5057596;28;20048;-84
2021/06/20 10:55:10;;;;;;;0.95;0.70;;;;;;;39.16;21.17;97884.03;5058040;28;20033;-85
2021/06/20 10:57:42;;;;;;;0.88;0.75;;;;;;;38.59;22.22;97900.31;5055200;28;20033;-85
2021/06/20 11:00:09;;;;;;;0.60;0.60;;;;;;;38.94;21.57;97893.66;5056980;28;20179;-86
2021/06/20 11:02:35;;;;;;;1.23;0.90;;;;;;;39.63;19.86;97888.03;5058500;28;20028;-85
2021/06/20 11:05:03;;;;;;;0.40;0.40;;;;;;;39.78;19.97;97887.53;5058458;28;20480;-85
2021/06/20 11:07:29;;;;;;;0.50;0.50;;;;;;;38.96;20.41;97882.41;5060757;28;20388;-85
2021/06/20 11:09:56;;;;;;;0.43;0.43;;;;;;;38.70;20.52;97888.72;5060984;28;20041;-85
2021/06/20 11:12:23;;;;;;;1.00;0.70;;;;;;;38.77;20.18;97875.88;5063110;28;20037;-86
2021/06/20 11:14:50;;;;;;;0.82;0.65;;;;;;;38.91;20.74;97880.38;5059222;28;20507;-84
2021/06/20 11:17:17;;;;;;;0.40;0.40;;;;;;;39.81;19.13;97884.34;5059067;28;20132;-85
2021/06/20 11:19:44;;;;;;;0.80;0.70;;;;;;;40.07;19.48;97877.94;5058970;28;20044;-85
2021/06/20 11:22:13;;;;;;;0.70;0.70;;;;;;;39.96;19.29;97869.44;5057147;28;20029;-83
2021/06/20 11:24:47;;;;;;;1.05;0.60;;;;;;;39.90;20.38;97866.69;5061178;28;20035;-85
2021/06/20 11:27:15;;;;;;;0.40;0.40;;;;;;;41.28;16.82;97863.25;5060940;28;20040;-86
2021/06/20 11:29:52;;;;;;;0.40;0.30;;;;;;;41.79;18.33;97862.84;5061103;28;20041;-86
2021/06/20 11:32:21;;;;;;;0.57;0.57;;;;;;;40.11;18.40;97860.34;5061231;28;20032;-86
2021/06/20 11:34:49;;;;;;;2.28;0.65;;;;;;;39.59;20.44;97858.06;5068534;28;20033;-86
2021/06/20 11:37:21;;;;;;;0.60;0.60;;;;;;;39.13;20.13;97857.13;5062940;28;20029;-86